sensor_id;sensor_type;location;lat;lon;timestamp;P1;durP1;ratioP1;P2;durP2;ratioP2
39300;SDS011;25019;42.626;23.380;2023-08-24T00:01:32;12.10;;;8.50;;
39300;SDS011;25019;42.626;23.380;2023-08-24T00:03:58;10.43;;;8.73;;
39300;SDS011;25019;42.626;23.380;2023-08-24T00:06:23;9.93;;;8.30;;
39300;SDS011;25019;42.626;23.380;2023-08-24T00:08:50;9.30;;;8.40;;
39300;SDS011;25019;42.626;23.380;2023-08-24T00:11:15;9.83;;;8.83;;
39300;SDS011;25019;42.626;23.380;2023-08-24T00:13:41;10.80;;;8.77;;
39300;SDS011;25019;42.626;23.380;2023-08-24T00:16:20;9.67;;;8.73;;
39300;SDS011;25019;42.626;23.380;2023-08-24T00:18:46;9.07;;;8.17;;
39300;SDS011;25019;42.626;23.380;2023-08-24T00:21:15;9.97;;;8.90;;
39300;SDS011;25019;42.626;23.380;2023-08-24T00:23:48;9.70;;;8.80;;
39300;SDS011;25019;42.626;23.380;2023-08-24T00:26:14;9.13;;;8.23;;
39300;SDS011;25019;42.626;23.380;2023-08-24T00:28:42;9.57;;;8.67;;
39300;SDS011;25019;42.626;23.380;2023-08-24T00:31:08;9.23;;;8.33;;
39300;SDS011;25019;42.626;23.380;2023-08-24T00:33:34;10.03;;;8.67;;
39300;SDS011;25019;42.626;23.380;2023-08-24T00:36:00;9.43;;;8.53;;
39300;SDS011;25019;42.626;23.380;2023-08-24T00:38:26;9.97;;;8.60;;
39300;SDS011;25019;42.626;23.380;2023-08-24T00:40:51;9.60;;;8.43;;
39300;SDS011;25019;42.626;23.380;2023-08-24T00:43:19;9.93;;;8.93;;
39300;SDS011;25019;42.626;23.380;2023-08-24T00:45:52;9.80;;;8.50;;
39300;SDS011;25019;42.626;23.380;2023-08-24T00:48:20;10.73;;;9.03;;
39300;SDS011;25019;42.626;23.380;2023-08-24T00:51:09;10.20;;;8.53;;
39300;SDS011;25019;42.626;23.380;2023-08-24T00:53:35;9.60;;;8.53;;
39300;SDS011;25019;42.626;23.380;2023-08-24T00:56:02;10.00;;;8.40;;
39300;SDS011;25019;42.626;23.380;2023-08-24T00:58:28;10.13;;;9.13;;
39300;SDS011;25019;42.626;23.380;2023-08-24T01:00:56;9.20;;;8.30;;
39300;SDS011;25019;42.626;23.380;2023-08-24T01:03:22;9.97;;;8.93;;
39300;SDS011;25019;42.626;23.380;2023-08-24T01:05:50;9.27;;;8.37;;
39300;SDS011;25019;42.626;23.380;2023-08-24T01:08:17;10.37;;;9.30;;
39300;SDS011;25019;42.626;23.380;2023-08-24T01:13:32;9.37;;;8.47;;
39300;SDS011;25019;42.626;23.380;2023-08-24T01:16:13;9.07;;;8.10;;
39300;SDS011;25019;42.626;23.380;2023-08-24T01:18:43;11.90;;;9.10;;
39300;SDS011;25019;42.626;23.380;2023-08-24T01:21:09;12.97;;;9.07;;
39300;SDS011;25019;42.626;23.380;2023-08-24T01:26:39;9.03;;;8.13;;
39300;SDS011;25019;42.626;23.380;2023-08-24T01:29:06;10.27;;;9.10;;
39300;SDS011;25019;42.626;23.380;2023-08-24T01:31:32;9.63;;;8.67;;
39300;SDS011;25019;42.626;23.380;2023-08-24T01:33:58;11.67;;;9.00;;
39300;SDS011;25019;42.626;23.380;2023-08-24T01:36:25;9.67;;;8.67;;
39300;SDS011;25019;42.626;23.380;2023-08-24T01:38:58;9.90;;;9.00;;
39300;SDS011;25019;42.626;23.380;2023-08-24T01:41:37;9.27;;;8.47;;
39300;SDS011;25019;42.626;23.380;2023-08-24T01:44:04;10.73;;;8.70;;
39300;SDS011;25019;42.626;23.380;2023-08-24T01:46:33;10.90;;;9.47;;
39300;SDS011;25019;42.626;23.380;2023-08-24T01:49:00;11.03;;;9.10;;
39300;SDS011;25019;42.626;23.380;2023-08-24T01:51:27;10.90;;;8.83;;
39300;SDS011;25019;42.626;23.380;2023-08-24T01:53:53;9.87;;;8.87;;
39300;SDS011;25019;42.626;23.380;2023-08-24T01:56:19;11.10;;;8.80;;
39300;SDS011;25019;42.626;23.380;2023-08-24T01:58:45;10.10;;;9.20;;
39300;SDS011;25019;42.626;23.380;2023-08-24T02:01:11;10.57;;;8.90;;
39300;SDS011;25019;42.626;23.380;2023-08-24T02:03:37;9.73;;;8.33;;
39300;SDS011;25019;42.626;23.380;2023-08-24T02:06:04;9.80;;;8.70;;
39300;SDS011;25019;42.626;23.380;2023-08-24T02:08:32;10.23;;;9.23;;
39300;SDS011;25019;42.626;23.380;2023-08-24T02:10:57;10.77;;;9.67;;
39300;SDS011;25019;42.626;23.380;2023-08-24T02:13:23;9.70;;;8.47;;
39300;SDS011;25019;42.626;23.380;2023-08-24T02:15:49;10.37;;;9.27;;
39300;SDS011;25019;42.626;23.380;2023-08-24T02:18:15;11.40;;;10.27;;
39300;SDS011;25019;42.626;23.380;2023-08-24T02:20:40;10.60;;;9.57;;
39300;SDS011;25019;42.626;23.380;2023-08-24T02:23:06;10.43;;;9.43;;
39300;SDS011;25019;42.626;23.380;2023-08-24T02:25:32;10.33;;;9.23;;
39300;SDS011;25019;42.626;23.380;2023-08-24T02:27:58;10.87;;;9.20;;
39300;SDS011;25019;42.626;23.380;2023-08-24T02:30:24;10.47;;;9.47;;
39300;SDS011;25019;42.626;23.380;2023-08-24T02:32:50;10.23;;;9.13;;
39300;SDS011;25019;42.626;23.380;2023-08-24T02:35:16;10.23;;;9.23;;
39300;SDS011;25019;42.626;23.380;2023-08-24T02:37:43;10.00;;;8.87;;
39300;SDS011;25019;42.626;23.380;2023-08-24T02:40:08;10.27;;;9.17;;
39300;SDS011;25019;42.626;23.380;2023-08-24T02:42:34;10.83;;;9.07;;
39300;SDS011;25019;42.626;23.380;2023-08-24T02:45:00;10.33;;;9.30;;
39300;SDS011;25019;42.626;23.380;2023-08-24T02:47:27;10.10;;;9.10;;
39300;SDS011;25019;42.626;23.380;2023-08-24T02:49:53;10.80;;;9.33;;
39300;SDS011;25019;42.626;23.380;2023-08-24T02:52:18;12.70;;;9.63;;
39300;SDS011;25019;42.626;23.380;2023-08-24T02:54:44;10.30;;;9.17;;
39300;SDS011;25019;42.626;23.380;2023-08-24T02:57:10;13.37;;;10.07;;
39300;SDS011;25019;42.626;23.380;2023-08-24T02:59:35;10.77;;;9.73;;
39300;SDS011;25019;42.626;23.380;2023-08-24T03:02:01;13.33;;;10.20;;
39300;SDS011;25019;42.626;23.380;2023-08-24T03:04:26;10.97;;;9.47;;
39300;SDS011;25019;42.626;23.380;2023-08-24T03:06:52;11.73;;;10.57;;
39300;SDS011;25019;42.626;23.380;2023-08-24T03:09:18;11.27;;;9.47;;
39300;SDS011;25019;42.626;23.380;2023-08-24T03:11:44;11.77;;;10.37;;
39300;SDS011;25019;42.626;23.380;2023-08-24T03:14:10;9.93;;;9.03;;
39300;SDS011;25019;42.626;23.380;2023-08-24T03:16:37;10.73;;;9.63;;
39300;SDS011;25019;42.626;23.380;2023-08-24T03:19:04;12.13;;;8.73;;
39300;SDS011;25019;42.626;23.380;2023-08-24T03:21:31;10.40;;;9.40;;
39300;SDS011;25019;42.626;23.380;2023-08-24T03:23:57;10.10;;;8.93;;
39300;SDS011;25019;42.626;23.380;2023-08-24T03:26:22;9.97;;;8.97;;
39300;SDS011;25019;42.626;23.380;2023-08-24T03:28:48;10.73;;;9.63;;
39300;SDS011;25019;42.626;23.380;2023-08-24T03:31:14;10.93;;;9.83;;
39300;SDS011;25019;42.626;23.380;2023-08-24T03:33:40;11.03;;;9.27;;
39300;SDS011;25019;42.626;23.380;2023-08-24T03:36:06;11.70;;;9.47;;
39300;SDS011;25019;42.626;23.380;2023-08-24T03:38:32;11.40;;;9.50;;
39300;SDS011;25019;42.626;23.380;2023-08-24T03:41:04;10.93;;;9.83;;
39300;SDS011;25019;42.626;23.380;2023-08-24T03:43:34;10.10;;;9.13;;
39300;SDS011;25019;42.626;23.380;2023-08-24T03:46:00;10.53;;;8.87;;
39300;SDS011;25019;42.626;23.380;2023-08-24T03:48:26;11.50;;;10.27;;
39300;SDS011;25019;42.626;23.380;2023-08-24T03:50:55;11.00;;;8.47;;
39300;SDS011;25019;42.626;23.380;2023-08-24T03:53:22;11.80;;;10.00;;
39300;SDS011;25019;42.626;23.380;2023-08-24T03:55:48;10.90;;;9.80;;
39300;SDS011;25019;42.626;23.380;2023-08-24T03:58:16;12.13;;;10.73;;
39300;SDS011;25019;42.626;23.380;2023-08-24T04:00:42;12.17;;;10.87;;
39300;SDS011;25019;42.626;23.380;2023-08-24T04:03:09;13.80;;;10.33;;
39300;SDS011;25019;42.626;23.380;2023-08-24T04:05:35;13.03;;;11.17;;
39300;SDS011;25019;42.626;23.380;2023-08-24T04:08:00;11.80;;;10.70;;
39300;SDS011;25019;42.626;23.380;2023-08-24T04:10:27;13.20;;;11.17;;
39300;SDS011;25019;42.626;23.380;2023-08-24T04:12:56;13.23;;;11.03;;
39300;SDS011;25019;42.626;23.380;2023-08-24T04:15:22;13.73;;;10.97;;
39300;SDS011;25019;42.626;23.380;2023-08-24T04:17:49;15.13;;;10.27;;
39300;SDS011;25019;42.626;23.380;2023-08-24T04:20:16;13.07;;;10.93;;
39300;SDS011;25019;42.626;23.380;2023-08-24T04:22:41;11.60;;;10.40;;
39300;SDS011;25019;42.626;23.380;2023-08-24T04:25:07;12.83;;;11.53;;
39300;SDS011;25019;42.626;23.380;2023-08-24T04:27:34;14.27;;;11.57;;
39300;SDS011;25019;42.626;23.380;2023-08-24T04:30:00;12.57;;;10.33;;
39300;SDS011;25019;42.626;23.380;2023-08-24T04:32:26;15.80;;;10.67;;
39300;SDS011;25019;42.626;23.380;2023-08-24T04:34:52;13.40;;;10.63;;
39300;SDS011;25019;42.626;23.380;2023-08-24T04:37:18;13.60;;;10.00;;
39300;SDS011;25019;42.626;23.380;2023-08-24T04:39:44;11.90;;;10.30;;
39300;SDS011;25019;42.626;23.380;2023-08-24T04:42:09;11.00;;;9.50;;
39300;SDS011;25019;42.626;23.380;2023-08-24T04:44:35;12.17;;;9.67;;
39300;SDS011;25019;42.626;23.380;2023-08-24T04:47:01;9.73;;;8.80;;
39300;SDS011;25019;42.626;23.380;2023-08-24T04:49:26;9.83;;;8.73;;
39300;SDS011;25019;42.626;23.380;2023-08-24T04:51:53;10.97;;;9.87;;
39300;SDS011;25019;42.626;23.380;2023-08-24T04:54:19;14.07;;;10.33;;
39300;SDS011;25019;42.626;23.380;2023-08-24T04:56:44;12.57;;;10.50;;
39300;SDS011;25019;42.626;23.380;2023-08-24T04:59:10;12.77;;;9.57;;
39300;SDS011;25019;42.626;23.380;2023-08-24T05:01:36;12.90;;;9.60;;
39300;SDS011;25019;42.626;23.380;2023-08-24T05:04:02;13.30;;;9.93;;
39300;SDS011;25019;42.626;23.380;2023-08-24T05:06:27;12.93;;;9.27;;
39300;SDS011;25019;42.626;23.380;2023-08-24T05:08:53;12.17;;;10.00;;
39300;SDS011;25019;42.626;23.380;2023-08-24T05:11:21;12.07;;;9.87;;
39300;SDS011;25019;42.626;23.380;2023-08-24T05:13:51;14.53;;;10.50;;
39300;SDS011;25019;42.626;23.380;2023-08-24T05:16:17;15.50;;;10.23;;
39300;SDS011;25019;42.626;23.380;2023-08-24T05:18:42;12.17;;;10.07;;
39300;SDS011;25019;42.626;23.380;2023-08-24T05:21:08;12.60;;;10.50;;
39300;SDS011;25019;42.626;23.380;2023-08-24T05:23:34;13.90;;;10.13;;
39300;SDS011;25019;42.626;23.380;2023-08-24T05:26:00;14.27;;;9.60;;
39300;SDS011;25019;42.626;23.380;2023-08-24T05:28:27;14.50;;;10.97;;
39300;SDS011;25019;42.626;23.380;2023-08-24T05:30:55;15.77;;;11.00;;
39300;SDS011;25019;42.626;23.380;2023-08-24T05:33:21;13.63;;;10.43;;
39300;SDS011;25019;42.626;23.380;2023-08-24T05:35:48;15.43;;;10.30;;
39300;SDS011;25019;42.626;23.380;2023-08-24T05:38:14;14.53;;;9.93;;
39300;SDS011;25019;42.626;23.380;2023-08-24T05:40:41;12.30;;;10.20;;
39300;SDS011;25019;42.626;23.380;2023-08-24T05:43:08;10.93;;;9.83;;
39300;SDS011;25019;42.626;23.380;2023-08-24T05:45:35;10.67;;;9.53;;
39300;SDS011;25019;42.626;23.380;2023-08-24T05:48:01;10.70;;;9.60;;
39300;SDS011;25019;42.626;23.380;2023-08-24T05:50:27;10.77;;;9.53;;
39300;SDS011;25019;42.626;23.380;2023-08-24T05:52:52;11.60;;;9.70;;
39300;SDS011;25019;42.626;23.380;2023-08-24T05:55:18;12.20;;;9.33;;
39300;SDS011;25019;42.626;23.380;2023-08-24T05:57:44;16.20;;;10.20;;
39300;SDS011;25019;42.626;23.380;2023-08-24T06:00:09;16.77;;;10.70;;
39300;SDS011;25019;42.626;23.380;2023-08-24T06:02:40;13.97;;;10.43;;
39300;SDS011;25019;42.626;23.380;2023-08-24T06:05:06;13.17;;;10.40;;
39300;SDS011;25019;42.626;23.380;2023-08-24T06:07:33;11.83;;;9.67;;
39300;SDS011;25019;42.626;23.380;2023-08-24T06:09:59;11.60;;;10.23;;
39300;SDS011;25019;42.626;23.380;2023-08-24T06:12:24;14.70;;;10.27;;
39300;SDS011;25019;42.626;23.380;2023-08-24T06:14:50;12.47;;;10.40;;
39300;SDS011;25019;42.626;23.380;2023-08-24T06:17:15;11.37;;;9.63;;
39300;SDS011;25019;42.626;23.380;2023-08-24T06:19:42;13.93;;;11.10;;
39300;SDS011;25019;42.626;23.380;2023-08-24T06:22:08;13.30;;;10.60;;
39300;SDS011;25019;42.626;23.380;2023-08-24T06:24:34;12.73;;;10.47;;
39300;SDS011;25019;42.626;23.380;2023-08-24T06:27:00;14.30;;;12.00;;
39300;SDS011;25019;42.626;23.380;2023-08-24T06:29:27;16.53;;;13.43;;
39300;SDS011;25019;42.626;23.380;2023-08-24T06:31:53;17.13;;;13.87;;
39300;SDS011;25019;42.626;23.380;2023-08-24T06:34:20;17.23;;;13.57;;
39300;SDS011;25019;42.626;23.380;2023-08-24T06:36:45;21.90;;;16.07;;
39300;SDS011;25019;42.626;23.380;2023-08-24T06:39:12;17.10;;;15.10;;
39300;SDS011;25019;42.626;23.380;2023-08-24T06:41:38;21.03;;;15.10;;
39300;SDS011;25019;42.626;23.380;2023-08-24T06:44:06;18.77;;;14.20;;
39300;SDS011;25019;42.626;23.380;2023-08-24T06:46:32;20.23;;;14.33;;
39300;SDS011;25019;42.626;23.380;2023-08-24T06:48:58;18.60;;;13.47;;
39300;SDS011;25019;42.626;23.380;2023-08-24T06:51:24;21.13;;;15.20;;
39300;SDS011;25019;42.626;23.380;2023-08-24T06:53:50;20.93;;;14.90;;
39300;SDS011;25019;42.626;23.380;2023-08-24T06:56:16;17.43;;;14.03;;
39300;SDS011;25019;42.626;23.380;2023-08-24T06:58:42;20.90;;;15.20;;
39300;SDS011;25019;42.626;23.380;2023-08-24T07:01:08;17.20;;;14.63;;
39300;SDS011;25019;42.626;23.380;2023-08-24T07:03:34;18.13;;;14.70;;
39300;SDS011;25019;42.626;23.380;2023-08-24T07:05:59;19.23;;;14.73;;
39300;SDS011;25019;42.626;23.380;2023-08-24T07:08:25;20.50;;;14.63;;
39300;SDS011;25019;42.626;23.380;2023-08-24T07:10:50;16.93;;;13.83;;
39300;SDS011;25019;42.626;23.380;2023-08-24T07:13:16;21.93;;;14.83;;
39300;SDS011;25019;42.626;23.380;2023-08-24T07:15:42;18.43;;;14.67;;
39300;SDS011;25019;42.626;23.380;2023-08-24T07:18:08;18.30;;;13.90;;
39300;SDS011;25019;42.626;23.380;2023-08-24T07:20:34;17.87;;;15.07;;
39300;SDS011;25019;42.626;23.380;2023-08-24T07:23:00;18.57;;;13.40;;
39300;SDS011;25019;42.626;23.380;2023-08-24T07:25:26;17.43;;;14.70;;
39300;SDS011;25019;42.626;23.380;2023-08-24T07:27:53;17.17;;;14.10;;
39300;SDS011;25019;42.626;23.380;2023-08-24T07:30:24;14.83;;;13.10;;
39300;SDS011;25019;42.626;23.380;2023-08-24T07:32:55;18.80;;;13.80;;
39300;SDS011;25019;42.626;23.380;2023-08-24T07:35:21;20.63;;;14.07;;
39300;SDS011;25019;42.626;23.380;2023-08-24T07:37:53;15.40;;;13.50;;
39300;SDS011;25019;42.626;23.380;2023-08-24T07:40:19;16.77;;;13.43;;
39300;SDS011;25019;42.626;23.380;2023-08-24T07:45:16;17.07;;;13.40;;
39300;SDS011;25019;42.626;23.380;2023-08-24T07:47:42;14.30;;;12.87;;
39300;SDS011;25019;42.626;23.380;2023-08-24T07:50:09;14.07;;;12.57;;
39300;SDS011;25019;42.626;23.380;2023-08-24T07:52:38;16.87;;;12.43;;
39300;SDS011;25019;42.626;23.380;2023-08-24T07:55:08;15.73;;;13.60;;
39300;SDS011;25019;42.626;23.380;2023-08-24T07:57:35;15.13;;;12.60;;
39300;SDS011;25019;42.626;23.380;2023-08-24T08:00:02;16.93;;;12.73;;
39300;SDS011;25019;42.626;23.380;2023-08-24T08:02:37;14.23;;;12.80;;
39300;SDS011;25019;42.626;23.380;2023-08-24T08:05:03;14.60;;;13.00;;
39300;SDS011;25019;42.626;23.380;2023-08-24T08:07:29;14.13;;;11.87;;
39300;SDS011;25019;42.626;23.380;2023-08-24T08:09:55;13.27;;;11.83;;
39300;SDS011;25019;42.626;23.380;2023-08-24T08:12:21;14.87;;;12.47;;
39300;SDS011;25019;42.626;23.380;2023-08-24T08:14:47;14.97;;;12.53;;
39300;SDS011;25019;42.626;23.380;2023-08-24T08:17:12;15.10;;;13.53;;
39300;SDS011;25019;42.626;23.380;2023-08-24T08:19:38;14.43;;;11.60;;
39300;SDS011;25019;42.626;23.380;2023-08-24T08:22:04;15.43;;;11.20;;
39300;SDS011;25019;42.626;23.380;2023-08-24T08:24:30;15.17;;;11.97;;
39300;SDS011;25019;42.626;23.380;2023-08-24T08:26:56;18.87;;;12.60;;
39300;SDS011;25019;42.626;23.380;2023-08-24T08:29:22;12.70;;;11.40;;
39300;SDS011;25019;42.626;23.380;2023-08-24T08:31:47;17.80;;;11.53;;
39300;SDS011;25019;42.626;23.380;2023-08-24T08:34:14;14.07;;;11.03;;
39300;SDS011;25019;42.626;23.380;2023-08-24T08:36:39;13.03;;;10.93;;
39300;SDS011;25019;42.626;23.380;2023-08-24T08:39:05;13.70;;;10.60;;
39300;SDS011;25019;42.626;23.380;2023-08-24T08:41:33;13.23;;;11.70;;
39300;SDS011;25019;42.626;23.380;2023-08-24T08:44:04;14.33;;;11.30;;
39300;SDS011;25019;42.626;23.380;2023-08-24T08:46:31;13.90;;;10.60;;
39300;SDS011;25019;42.626;23.380;2023-08-24T08:48:57;12.50;;;10.90;;
39300;SDS011;25019;42.626;23.380;2023-08-24T08:51:25;13.40;;;10.57;;
39300;SDS011;25019;42.626;23.380;2023-08-24T08:53:51;14.50;;;11.00;;
39300;SDS011;25019;42.626;23.380;2023-08-24T08:56:17;14.17;;;10.90;;
39300;SDS011;25019;42.626;23.380;2023-08-24T08:58:43;13.27;;;11.27;;
39300;SDS011;25019;42.626;23.380;2023-08-24T09:01:11;12.23;;;10.97;;
39300;SDS011;25019;42.626;23.380;2023-08-24T09:03:37;11.93;;;10.67;;
39300;SDS011;25019;42.626;23.380;2023-08-24T09:06:04;13.53;;;11.70;;
39300;SDS011;25019;42.626;23.380;2023-08-24T09:08:30;14.50;;;11.80;;
39300;SDS011;25019;42.626;23.380;2023-08-24T09:10:58;14.77;;;11.27;;
39300;SDS011;25019;42.626;23.380;2023-08-24T09:13:24;14.93;;;11.63;;
39300;SDS011;25019;42.626;23.380;2023-08-24T09:15:51;14.97;;;11.57;;
39300;SDS011;25019;42.626;23.380;2023-08-24T09:18:19;14.20;;;11.43;;
39300;SDS011;25019;42.626;23.380;2023-08-24T09:20:46;14.13;;;11.10;;
39300;SDS011;25019;42.626;23.380;2023-08-24T09:23:18;12.63;;;10.73;;
39300;SDS011;25019;42.626;23.380;2023-08-24T09:25:48;13.87;;;11.57;;
39300;SDS011;25019;42.626;23.380;2023-08-24T09:28:14;13.43;;;11.87;;
39300;SDS011;25019;42.626;23.380;2023-08-24T09:30:49;12.90;;;11.47;;
39300;SDS011;25019;42.626;23.380;2023-08-24T09:33:19;12.53;;;11.27;;
39300;SDS011;25019;42.626;23.380;2023-08-24T09:35:52;12.47;;;11.17;;
39300;SDS011;25019;42.626;23.380;2023-08-24T09:38:21;15.10;;;11.40;;
39300;SDS011;25019;42.626;23.380;2023-08-24T09:40:52;17.33;;;12.47;;
39300;SDS011;25019;42.626;23.380;2023-08-24T09:43:18;15.33;;;12.37;;
39300;SDS011;25019;42.626;23.380;2023-08-24T09:45:51;13.30;;;11.90;;
39300;SDS011;25019;42.626;23.380;2023-08-24T09:48:21;13.03;;;11.60;;
39300;SDS011;25019;42.626;23.380;2023-08-24T09:50:51;14.90;;;11.13;;
39300;SDS011;25019;42.626;23.380;2023-08-24T09:53:20;12.80;;;11.40;;
39300;SDS011;25019;42.626;23.380;2023-08-24T09:55:49;12.80;;;11.60;;
39300;SDS011;25019;42.626;23.380;2023-08-24T09:58:18;12.07;;;10.83;;
39300;SDS011;25019;42.626;23.380;2023-08-24T10:00:45;13.27;;;11.83;;
39300;SDS011;25019;42.626;23.380;2023-08-24T10:03:13;13.83;;;11.60;;
39300;SDS011;25019;42.626;23.380;2023-08-24T10:05:45;12.20;;;10.87;;
39300;SDS011;25019;42.626;23.380;2023-08-24T10:08:15;11.73;;;10.50;;
39300;SDS011;25019;42.626;23.380;2023-08-24T10:10:45;12.90;;;10.90;;
39300;SDS011;25019;42.626;23.380;2023-08-24T10:13:20;11.27;;;10.13;;
39300;SDS011;25019;42.626;23.380;2023-08-24T10:16:07;12.23;;;10.70;;
39300;SDS011;25019;42.626;23.380;2023-08-24T10:18:33;13.07;;;10.73;;
39300;SDS011;25019;42.626;23.380;2023-08-24T10:20:59;12.90;;;11.23;;
39300;SDS011;25019;42.626;23.380;2023-08-24T10:23:29;12.63;;;10.10;;
39300;SDS011;25019;42.626;23.380;2023-08-24T10:25:57;11.17;;;10.17;;
39300;SDS011;25019;42.626;23.380;2023-08-24T10:28:23;13.33;;;10.17;;
39300;SDS011;25019;42.626;23.380;2023-08-24T10:30:52;12.57;;;9.77;;
39300;SDS011;25019;42.626;23.380;2023-08-24T10:33:19;11.20;;;10.10;;
39300;SDS011;25019;42.626;23.380;2023-08-24T10:35:47;11.30;;;10.10;;
39300;SDS011;25019;42.626;23.380;2023-08-24T10:38:25;10.57;;;9.47;;
39300;SDS011;25019;42.626;23.380;2023-08-24T10:40:52;10.30;;;9.30;;
39300;SDS011;25019;42.626;23.380;2023-08-24T10:43:19;11.03;;;9.63;;
39300;SDS011;25019;42.626;23.380;2023-08-24T10:45:56;11.20;;;9.80;;
39300;SDS011;25019;42.626;23.380;2023-08-24T10:48:27;10.93;;;9.93;;
39300;SDS011;25019;42.626;23.380;2023-08-24T10:51:19;10.60;;;9.60;;
39300;SDS011;25019;42.626;23.380;2023-08-24T10:53:51;11.33;;;10.17;;
39300;SDS011;25019;42.626;23.380;2023-08-24T10:56:17;12.90;;;10.23;;
39300;SDS011;25019;42.626;23.380;2023-08-24T10:58:46;11.70;;;10.50;;
39300;SDS011;25019;42.626;23.380;2023-08-24T11:01:16;10.83;;;9.67;;
39300;SDS011;25019;42.626;23.380;2023-08-24T11:03:46;12.40;;;9.57;;
39300;SDS011;25019;42.626;23.380;2023-08-24T11:06:20;12.70;;;9.67;;
39300;SDS011;25019;42.626;23.380;2023-08-24T11:08:47;12.93;;;10.47;;
39300;SDS011;25019;42.626;23.380;2023-08-24T11:11:20;11.27;;;9.70;;
39300;SDS011;25019;42.626;23.380;2023-08-24T11:17:17;11.03;;;10.03;;
39300;SDS011;25019;42.626;23.380;2023-08-24T11:19:50;11.60;;;10.43;;
39300;SDS011;25019;42.626;23.380;2023-08-24T11:22:17;11.33;;;10.10;;
39300;SDS011;25019;42.626;23.380;2023-08-24T11:24:44;13.43;;;10.43;;
39300;SDS011;25019;42.626;23.380;2023-08-24T11:27:10;13.57;;;10.70;;
39300;SDS011;25019;42.626;23.380;2023-08-24T11:29:35;11.93;;;10.03;;
39300;SDS011;25019;42.626;23.380;2023-08-24T11:32:01;12.57;;;10.20;;
39300;SDS011;25019;42.626;23.380;2023-08-24T11:34:28;11.57;;;10.40;;
39300;SDS011;25019;42.626;23.380;2023-08-24T11:36:54;12.67;;;10.80;;
39300;SDS011;25019;42.626;23.380;2023-08-24T11:39:20;11.37;;;10.17;;
39300;SDS011;25019;42.626;23.380;2023-08-24T11:41:59;16.00;;;10.70;;
39300;SDS011;25019;42.626;23.380;2023-08-24T11:44:26;11.77;;;10.03;;
39300;SDS011;25019;42.626;23.380;2023-08-24T11:46:52;12.63;;;11.30;;
39300;SDS011;25019;42.626;23.380;2023-08-24T11:49:21;12.77;;;10.03;;
39300;SDS011;25019;42.626;23.380;2023-08-24T11:51:47;12.10;;;10.90;;
39300;SDS011;25019;42.626;23.380;2023-08-24T11:54:16;12.03;;;10.83;;
39300;SDS011;25019;42.626;23.380;2023-08-24T11:56:43;11.67;;;10.47;;
39300;SDS011;25019;42.626;23.380;2023-08-24T11:59:14;12.37;;;11.00;;
39300;SDS011;25019;42.626;23.380;2023-08-24T12:01:41;13.00;;;11.53;;
39300;SDS011;25019;42.626;23.380;2023-08-24T12:04:08;11.77;;;10.57;;
39300;SDS011;25019;42.626;23.380;2023-08-24T12:06:35;12.13;;;10.93;;
39300;SDS011;25019;42.626;23.380;2023-08-24T12:09:00;13.27;;;11.17;;
39300;SDS011;25019;42.626;23.380;2023-08-24T12:11:29;12.73;;;10.20;;
39300;SDS011;25019;42.626;23.380;2023-08-24T12:14:00;12.13;;;10.67;;
39300;SDS011;25019;42.626;23.380;2023-08-24T12:16:26;11.77;;;10.07;;
39300;SDS011;25019;42.626;23.380;2023-08-24T12:18:53;11.23;;;10.13;;
39300;SDS011;25019;42.626;23.380;2023-08-24T12:21:21;12.40;;;10.23;;
39300;SDS011;25019;42.626;23.380;2023-08-24T12:26:26;11.60;;;10.20;;
39300;SDS011;25019;42.626;23.380;2023-08-24T12:28:52;11.40;;;10.20;;
39300;SDS011;25019;42.626;23.380;2023-08-24T12:31:18;11.70;;;10.10;;
39300;SDS011;25019;42.626;23.380;2023-08-24T12:33:44;11.37;;;10.17;;
39300;SDS011;25019;42.626;23.380;2023-08-24T12:36:10;11.70;;;10.47;;
39300;SDS011;25019;42.626;23.380;2023-08-24T12:38:36;15.77;;;11.53;;
39300;SDS011;25019;42.626;23.380;2023-08-24T12:41:02;15.43;;;11.23;;
39300;SDS011;25019;42.626;23.380;2023-08-24T12:43:27;13.20;;;10.60;;
39300;SDS011;25019;42.626;23.380;2023-08-24T12:45:53;12.23;;;11.03;;
39300;SDS011;25019;42.626;23.380;2023-08-24T12:48:19;14.20;;;10.70;;
39300;SDS011;25019;42.626;23.380;2023-08-24T12:50:44;12.03;;;10.63;;
39300;SDS011;25019;42.626;23.380;2023-08-24T12:53:10;12.10;;;10.77;;
39300;SDS011;25019;42.626;23.380;2023-08-24T12:55:38;10.93;;;9.47;;
39300;SDS011;25019;42.626;23.380;2023-08-24T12:58:05;12.37;;;10.23;;
39300;SDS011;25019;42.626;23.380;2023-08-24T13:00:31;11.70;;;10.47;;
39300;SDS011;25019;42.626;23.380;2023-08-24T13:02:57;13.33;;;10.77;;
39300;SDS011;25019;42.626;23.380;2023-08-24T13:05:22;13.70;;;9.70;;
39300;SDS011;25019;42.626;23.380;2023-08-24T13:07:48;12.57;;;10.30;;
39300;SDS011;25019;42.626;23.380;2023-08-24T13:10:14;13.90;;;10.20;;
39300;SDS011;25019;42.626;23.380;2023-08-24T13:12:39;11.97;;;10.63;;
39300;SDS011;25019;42.626;23.380;2023-08-24T13:15:05;16.07;;;10.43;;
39300;SDS011;25019;42.626;23.380;2023-08-24T13:17:31;11.57;;;10.33;;
39300;SDS011;25019;42.626;23.380;2023-08-24T13:19:57;12.20;;;10.60;;
39300;SDS011;25019;42.626;23.380;2023-08-24T13:22:23;11.03;;;9.93;;
39300;SDS011;25019;42.626;23.380;2023-08-24T13:24:48;10.97;;;9.87;;
39300;SDS011;25019;42.626;23.380;2023-08-24T13:27:14;12.53;;;9.97;;
39300;SDS011;25019;42.626;23.380;2023-08-24T13:29:40;11.50;;;10.10;;
39300;SDS011;25019;42.626;23.380;2023-08-24T13:32:06;18.57;;;10.57;;
39300;SDS011;25019;42.626;23.380;2023-08-24T13:34:32;18.30;;;11.03;;
39300;SDS011;25019;42.626;23.380;2023-08-24T13:36:58;11.87;;;10.67;;
39300;SDS011;25019;42.626;23.380;2023-08-24T13:39:27;13.13;;;10.97;;
39300;SDS011;25019;42.626;23.380;2023-08-24T13:41:57;12.37;;;10.20;;
39300;SDS011;25019;42.626;23.380;2023-08-24T13:44:23;13.60;;;10.20;;
39300;SDS011;25019;42.626;23.380;2023-08-24T13:46:49;22.57;;;10.77;;
39300;SDS011;25019;42.626;23.380;2023-08-24T13:49:17;11.47;;;9.47;;
39300;SDS011;25019;42.626;23.380;2023-08-24T13:51:44;10.23;;;9.23;;
39300;SDS011;25019;42.626;23.380;2023-08-24T13:54:16;11.63;;;10.43;;
39300;SDS011;25019;42.626;23.380;2023-08-24T13:56:43;11.53;;;9.63;;
39300;SDS011;25019;42.626;23.380;2023-08-24T13:59:09;12.43;;;11.13;;
39300;SDS011;25019;42.626;23.380;2023-08-24T14:01:35;12.37;;;11.13;;
39300;SDS011;25019;42.626;23.380;2023-08-24T14:04:01;11.57;;;10.37;;
39300;SDS011;25019;42.626;23.380;2023-08-24T14:06:28;13.73;;;12.30;;
39300;SDS011;25019;42.626;23.380;2023-08-24T14:08:57;12.10;;;10.83;;
39300;SDS011;25019;42.626;23.380;2023-08-24T14:11:23;11.67;;;10.57;;
39300;SDS011;25019;42.626;23.380;2023-08-24T14:13:48;11.60;;;10.43;;
39300;SDS011;25019;42.626;23.380;2023-08-24T14:16:14;11.47;;;10.30;;
39300;SDS011;25019;42.626;23.380;2023-08-24T14:18:40;11.63;;;9.87;;
39300;SDS011;25019;42.626;23.380;2023-08-24T14:21:06;11.83;;;10.23;;
39300;SDS011;25019;42.626;23.380;2023-08-24T14:23:31;13.93;;;11.00;;
39300;SDS011;25019;42.626;23.380;2023-08-24T14:25:57;12.90;;;11.57;;
39300;SDS011;25019;42.626;23.380;2023-08-24T14:28:23;11.13;;;10.13;;